map of IPH home
IPH - Airport
Location
City:  Ipoh, Perak, Malaysia
Name:Sultan Azlan Shah
ICAO:WMKI
IATA:IPH

Details
Type:Airport (Aerodrome, Airfield)
Use:Public/Civil
Latitude:434'05"N (4.567972)
Longitude:10105'32"E (101.092194)
Datum:WGS 1984
Elevation:130 ft (40 m)
Variation:0.11W (WMM2015 magnetic declination)
0.01 annual change
Runways:1
Longest:5900 × 121 ft (1798 × 37 m), paved

Time
Time Zone:UTC+8
Local Time:

Weather
METAR:WMKI 120500Z 03006KT 350V060 9999 FEW017CB BKN140 BKN270 30/24 Q1011

Related Locations
Nearby:
Farthest:LOH: 12385 mi / 19931 km
Loja (La Toma) [Ciudad de Catamayo Airport (Camilo Ponce Enriquez Airport)], L, EC

Find:

   beyond  
but within

Other Information
Maps:
NOTAMs:
Links:
Sources:

  
  • flag of Malaysia
  • flag of Perak
  

Sectional Chart

Flight Planning
at skyvector.com

Satellite Image

Google Maps Satellite view

 

Copyright © 2004-2018 Karl L. Swartz. All rights reserved.
The Great Circle Mapper name and logo are trademarks of the Great Circle Mapper.
All other trademarks mentioned herein belong to their respective owners.
Please see credits for attibutions and further copyright information.

  Follow gcmap on Facebook Follow gcmap on Twitter Follow gcmap on Google+ GCmap on LinkedIn

hCard Microformat

Geo Microformat